createdAt,value
2023-02-06T00:00:57.113Z,85.82
2023-02-06T00:05:58.613Z,72.82
2023-02-06T00:11:00.131Z,65.95
2023-02-06T00:16:01.581Z,50.47
2023-02-06T00:21:03.061Z,84.82
2023-02-06T00:26:04.475Z,73.57
2023-02-06T00:31:05.989Z,76.45
2023-02-06T00:36:07.492Z,70.43
2023-02-06T00:41:08.927Z,78.82
2023-02-06T00:46:10.405Z,78.75
2023-02-06T00:51:12.055Z,74.85
2023-02-06T00:56:13.514Z,69.80
2023-02-06T01:01:15.025Z,80.22
2023-02-06T01:06:16.478Z,79.90
2023-02-06T01:11:17.952Z,82.82
2023-02-06T01:16:19.403Z,66.68
2023-02-06T01:21:20.858Z,89.50
2023-02-06T01:26:22.289Z,88.18
2023-02-06T01:31:23.840Z,76.22
2023-02-06T01:36:25.296Z,78.68
2023-02-06T01:41:27.294Z,74.53
2023-02-06T01:46:29.160Z,77.03
2023-02-06T01:51:30.614Z,68.82
2023-02-06T01:56:32.035Z,65.90
2023-02-06T02:01:33.492Z,63.63
2023-02-06T02:06:34.959Z,77.07
2023-02-06T02:11:36.437Z,67.55
2023-02-06T02:16:37.958Z,69.25
2023-02-06T02:21:39.439Z,73.35
2023-02-06T02:26:40.852Z,74.82
2023-02-06T02:31:42.289Z,75.63
2023-02-06T02:36:43.728Z,64.15
2023-02-06T02:41:45.143Z,69.95
2023-02-06T02:46:46.597Z,86.65
2023-02-06T02:51:48.030Z,72.88
2023-02-06T02:56:49.466Z,62.58
2023-02-06T03:01:50.944Z,67.38
2023-02-06T03:06:52.404Z,80.68
2023-02-06T03:11:53.816Z,52.97
2023-02-06T03:16:55.278Z,64.80
2023-02-06T03:21:56.706Z,65.28
2023-02-06T03:26:58.129Z,57.22
2023-02-06T03:31:59.598Z,63.97
2023-02-06T03:37:01.023Z,67.07
2023-02-06T03:42:02.440Z,54.83
2023-02-06T03:47:03.913Z,66.63
2023-02-06T03:52:05.371Z,69.70
2023-02-06T03:57:06.837Z,59.83
2023-02-06T04:02:08.347Z,60.42
2023-02-06T04:07:09.808Z,61.60
2023-02-06T04:12:11.278Z,56.33
2023-02-06T04:17:12.757Z,68.90
2023-02-06T04:22:14.193Z,75.05
2023-02-06T04:27:15.689Z,79.85
2023-02-06T04:32:17.137Z,71.28
2023-02-06T04:37:18.558Z,69.10
2023-02-06T04:42:20.018Z,69.40
2023-02-06T04:47:21.443Z,68.07
2023-02-06T04:52:22.860Z,61.63
2023-02-06T04:57:24.332Z,63.42
2023-02-06T05:02:25.769Z,58.80
2023-02-06T05:07:27.200Z,62.80
2023-02-06T05:12:28.651Z,64.20
2023-02-06T05:17:30.080Z,62.42
2023-02-06T05:22:31.538Z,79.38
2023-02-06T05:27:33.000Z,75.65
2023-02-06T05:32:34.454Z,119.75
2023-02-06T05:37:35.881Z,155.95
2023-02-06T05:42:37.313Z,145.52
2023-02-06T05:47:38.752Z,186.32
2023-02-06T05:52:40.216Z,115.93
2023-02-06T05:57:41.660Z,108.40
2023-02-06T06:02:43.223Z,88.88
2023-02-06T06:07:44.690Z,83.65
2023-02-06T06:12:46.157Z,69.95
2023-02-06T06:17:47.674Z,63.97
2023-02-06T06:22:49.109Z,74.88
2023-02-06T06:27:50.611Z,70.05
2023-02-06T06:32:52.048Z,59.70
2023-02-06T06:37:53.496Z,60.72
2023-02-06T06:42:54.920Z,79.55
2023-02-06T06:47:56.341Z,85.28
2023-02-06T06:52:57.801Z,85.15
2023-02-06T06:57:59.228Z,84.05
2023-02-06T07:03:00.756Z,85.80
2023-02-06T07:08:02.242Z,76.32
2023-02-06T07:13:03.718Z,84.55
2023-02-06T07:18:05.200Z,89.28
2023-02-06T07:23:07.787Z,87.50
2023-02-06T07:28:09.606Z,83.70
2023-02-06T07:33:11.153Z,91.90
2023-02-06T07:38:12.641Z,85.10
2023-02-06T07:43:14.115Z,105.78
2023-02-06T07:48:15.616Z,132.93
2023-02-06T07:53:17.073Z,94.25
2023-02-06T07:58:18.492Z,81.13
2023-02-06T08:03:19.917Z,88.35
2023-02-06T08:08:21.388Z,79.03
2023-02-06T08:13:22.873Z,66.72
2023-02-06T08:18:24.314Z,63.20
2023-02-06T08:23:25.775Z,32.45
2023-02-06T08:28:27.240Z,50.88
2023-02-06T08:33:28.699Z,49.25
2023-02-06T08:38:30.132Z,33.47
2023-02-06T08:43:33.113Z,37.03
2023-02-06T08:48:34.722Z,42.03
2023-02-06T08:53:36.154Z,33.72
2023-02-06T08:58:37.592Z,40.53
2023-02-06T09:03:39.049Z,36.08
2023-02-06T09:08:40.502Z,34.95
2023-02-06T09:13:41.954Z,32.50
2023-02-06T09:18:43.430Z,27.17
2023-02-06T09:23:45.003Z,21.77
2023-02-06T09:28:46.555Z,22.27
2023-02-06T09:33:47.990Z,25.50
2023-02-06T09:38:49.476Z,11.95
2023-02-06T09:43:50.902Z,18.77
2023-02-06T09:48:52.329Z,20.40
2023-02-06T09:53:53.986Z,15.77
2023-02-06T09:58:55.437Z,26.63
2023-02-06T10:03:56.919Z,20.85
2023-02-06T10:08:58.369Z,22.17
2023-02-06T10:13:59.835Z,15.55
2023-02-06T10:19:01.315Z,21.52
2023-02-06T10:24:02.745Z,15.80
2023-02-06T10:29:04.333Z,16.95
2023-02-06T10:34:05.906Z,20.50
2023-02-06T10:39:07.439Z,19.85
2023-02-06T10:44:09.224Z,17.63
2023-02-06T10:49:10.664Z,23.23
2023-02-06T10:54:12.088Z,19.55
2023-02-06T10:59:13.531Z,12.13
2023-02-06T11:04:14.982Z,5.18
2023-02-06T11:09:16.429Z,15.40
2023-02-06T11:14:17.883Z,14.70
2023-02-06T11:19:19.364Z,9.45
2023-02-06T11:24:20.901Z,9.02
2023-02-06T11:29:22.494Z,17.10
2023-02-06T11:34:24.034Z,19.13
2023-02-06T11:39:25.472Z,20.40
2023-02-06T11:44:26.900Z,10.52
2023-02-06T11:49:28.340Z,13.65
2023-02-06T11:54:29.798Z,23.55
2023-02-06T11:59:31.273Z,17.33
2023-02-06T12:04:32.751Z,18.50
2023-02-06T12:09:34.211Z,16.48
2023-02-06T12:14:35.691Z,26.35
2023-02-06T12:19:37.130Z,21.90
2023-02-06T12:24:38.570Z,25.88
2023-02-06T12:29:39.994Z,26.83
2023-02-06T12:34:41.442Z,7.65
2023-02-06T12:39:42.904Z,22.60
2023-02-06T12:44:44.348Z,10.05
2023-02-06T12:49:45.883Z,18.92
2023-02-06T12:54:47.351Z,9.65
2023-02-06T12:59:57.636Z,23.60
2023-02-06T13:04:59.832Z,19.20
2023-02-06T13:10:01.294Z,20.75
2023-02-06T13:15:02.784Z,17.95
2023-02-06T13:20:04.222Z,26.98
2023-02-06T13:25:05.685Z,11.75
2023-02-06T13:30:07.167Z,20.67
2023-02-06T13:35:08.752Z,10.15
2023-02-06T13:40:10.177Z,14.73
2023-02-06T13:45:11.633Z,14.43
2023-02-06T13:50:13.059Z,20.73
2023-02-06T13:55:14.522Z,26.80
2023-02-06T14:00:15.987Z,15.63
2023-02-06T14:05:17.469Z,20.95
2023-02-06T14:10:18.912Z,18.52
2023-02-06T14:15:20.369Z,30.30
2023-02-06T14:20:21.839Z,27.13
2023-02-06T14:25:23.300Z,29.52
2023-02-06T14:30:24.773Z,21.92
2023-02-06T14:35:26.216Z,8.57
2023-02-06T14:40:27.640Z,15.00
2023-02-06T14:45:31.933Z,20.45
2023-02-06T14:50:35.411Z,27.33
2023-02-06T14:55:37.288Z,24.58
2023-02-06T15:00:38.939Z,21.00
2023-02-06T15:05:40.415Z,19.00
2023-02-06T15:10:41.852Z,25.35
2023-02-06T15:15:43.305Z,22.52
2023-02-06T15:20:44.736Z,22.85
2023-02-06T15:25:46.172Z,27.38
2023-02-06T15:30:48.195Z,17.15
2023-02-06T15:35:50.540Z,25.08
2023-02-06T15:40:52.514Z,22.73
2023-02-06T15:45:55.146Z,20.52
2023-02-06T15:50:57.503Z,15.75
2023-02-06T15:55:59.280Z,16.63
2023-02-06T16:01:01.518Z,26.48
2023-02-06T16:06:03.081Z,19.27
2023-02-06T16:11:04.514Z,26.55
2023-02-06T16:16:05.981Z,43.90
2023-02-06T16:21:07.455Z,41.35
2023-02-06T16:26:08.901Z,49.35
2023-02-06T16:31:10.537Z,28.10
2023-02-06T16:36:12.042Z,26.80
2023-02-06T16:41:13.523Z,23.25
2023-02-06T16:46:15.077Z,28.25
2023-02-06T16:51:16.549Z,32.75
2023-02-06T16:56:18.094Z,31.55
2023-02-06T17:01:19.586Z,26.77
2023-02-06T17:06:21.036Z,27.70
2023-02-06T17:11:22.466Z,29.10
2023-02-06T17:16:23.967Z,27.63
2023-02-06T17:21:25.433Z,34.35
2023-02-06T17:26:26.865Z,40.75
2023-02-06T17:31:28.453Z,41.53
2023-02-06T17:36:30.171Z,43.08
2023-02-06T17:41:31.819Z,34.00
2023-02-06T17:46:33.333Z,36.95
2023-02-06T17:51:34.768Z,45.40
2023-02-06T17:56:36.369Z,39.85
2023-02-06T18:01:37.937Z,36.58
2023-02-06T18:06:39.562Z,48.40
2023-02-06T18:11:40.989Z,53.85
2023-02-06T18:16:42.627Z,46.67
2023-02-06T18:21:44.092Z,60.35
2023-02-06T18:26:45.682Z,65.80
2023-02-06T18:31:47.372Z,50.90
2023-02-06T18:36:49.080Z,50.45
2023-02-06T18:41:50.784Z,40.83
2023-02-06T18:46:52.318Z,46.60
2023-02-06T18:51:53.783Z,44.55
2023-02-06T18:56:55.218Z,48.00
2023-02-06T19:01:56.918Z,57.55
2023-02-06T19:06:58.394Z,58.53
2023-02-06T19:11:59.825Z,55.50
2023-02-06T19:17:01.246Z,56.80
2023-02-06T19:22:02.880Z,97.63
2023-02-06T19:27:04.527Z,117.55
2023-02-06T19:32:06.006Z,132.00
2023-02-06T19:37:07.426Z,122.43
2023-02-06T19:42:09.059Z,160.32
2023-02-06T19:47:10.549Z,120.35
2023-02-06T19:52:12.184Z,134.45
2023-02-06T19:57:13.846Z,156.88
2023-02-06T20:02:15.337Z,207.68
2023-02-06T20:07:16.763Z,264.45
2023-02-06T20:12:18.196Z,180.57
2023-02-06T20:17:19.833Z,194.60
2023-02-06T20:22:21.305Z,159.45
2023-02-06T20:27:22.926Z,199.25
2023-02-06T20:32:24.538Z,161.85
2023-02-06T20:37:26.473Z,140.82
2023-02-06T20:42:28.463Z,153.20
2023-02-06T20:47:29.912Z,150.27
2023-02-06T20:52:31.518Z,174.52
2023-02-06T20:57:35.338Z,152.32
2023-02-06T21:02:37.106Z,135.63
2023-02-06T21:07:38.656Z,115.07
2023-02-06T21:12:40.114Z,150.27
2023-02-06T21:17:41.534Z,144.55
2023-02-06T21:22:42.981Z,187.50
2023-02-06T21:27:44.584Z,165.25
2023-02-06T21:32:46.065Z,149.20
2023-02-06T21:37:47.483Z,124.65
2023-02-06T21:42:48.978Z,137.02
2023-02-06T21:47:50.428Z,108.18
2023-02-06T21:52:51.844Z,106.88
2023-02-06T21:57:53.267Z,147.30
2023-02-06T22:02:54.696Z,136.02
2023-02-06T22:07:56.135Z,279.05
2023-02-06T22:12:57.563Z,269.67
2023-02-06T22:17:59.039Z,245.23
2023-02-06T22:23:00.485Z,201.20
2023-02-06T22:28:01.938Z,104.72
2023-02-06T22:33:03.404Z,110.10
2023-02-06T22:38:04.844Z,115.20
2023-02-06T22:43:06.297Z,94.97
2023-02-06T22:48:07.755Z,106.50
2023-02-06T22:53:09.236Z,119.10
2023-02-06T22:58:10.866Z,128.27
2023-02-06T23:03:12.319Z,134.73
2023-02-06T23:08:14.016Z,141.53
2023-02-06T23:13:15.482Z,144.30
2023-02-06T23:18:16.930Z,114.83
2023-02-06T23:23:18.361Z,158.07
2023-02-06T23:28:19.850Z,159.52
2023-02-06T23:33:21.348Z,135.63
2023-02-06T23:38:22.816Z,140.10
2023-02-06T23:43:24.251Z,122.77
2023-02-06T23:48:25.710Z,137.03
2023-02-06T23:53:27.152Z,166.07
2023-02-06T23:58:28.619Z,168.23
